Terminal Aerodrome Forecast
Issued by NWS Twin Cities, MN

Home | Current Version | Previous Version | Text Only | Print | Product List | Glossary On
Versions: 1 2 3 4 5 6 7 8 9 10 11 12 13 14 15 16 17
000
FTUS43 KMPX 311758 CCA
TAFSTC
TAF COR
KSTC 311758Z 3118/0118 03010KT P6SM OVC020
     FM311830 03012KT P6SM FEW025 BKN200
     FM010500 02012KT P6SM BKN070 OVC120=

USA.gov is the U.S. government's official web portal to all federal, state and local government web resources and services.